sensor_id;sensor_type;location;lat;lon;timestamp;pressure;altitude;pressure_sealevel;temperature;humidity
52653;BME280;39353;42.864;12.014;2023-04-26T00:02:34;97040.20;;;23.25;54.54
52653;BME280;39353;42.864;12.014;2023-04-26T00:05:02;97042.52;;;23.23;54.55
52653;BME280;39353;42.864;12.014;2023-04-26T00:07:43;97046.37;;;23.21;54.56
52653;BME280;39353;42.864;12.014;2023-04-26T00:10:24;97034.72;;;23.19;54.42
52653;BME280;39353;42.864;12.014;2023-04-26T00:13:07;97035.79;;;23.18;54.49
52653;BME280;39353;42.864;12.014;2023-04-26T00:15:49;97032.55;;;23.16;54.49
52653;BME280;39353;42.864;12.014;2023-04-26T00:18:16;97030.35;;;23.15;54.46
52653;BME280;39353;42.864;12.014;2023-04-26T00:20:58;97034.17;;;23.15;54.53
52653;BME280;39353;42.864;12.014;2023-04-26T00:23:28;97032.52;;;23.13;54.52
52653;BME280;39353;42.864;12.014;2023-04-26T00:25:56;97032.05;;;23.12;54.49
52653;BME280;39353;42.864;12.014;2023-04-26T00:28:25;97035.27;;;23.10;54.55
52653;BME280;39353;42.864;12.014;2023-04-26T00:31:16;97032.20;;;23.07;54.52
52653;BME280;39353;42.864;12.014;2023-04-26T00:33:58;97035.80;;;23.05;54.54
52653;BME280;39353;42.864;12.014;2023-04-26T00:36:39;97036.09;;;23.02;54.76
52653;BME280;39353;42.864;12.014;2023-04-26T00:39:20;97038.09;;;23.01;54.60
52653;BME280;39353;42.864;12.014;2023-04-26T00:41:48;97035.77;;;23.00;54.63
52653;BME280;39353;42.864;12.014;2023-04-26T00:44:15;97035.33;;;23.00;54.55
52653;BME280;39353;42.864;12.014;2023-04-26T00:46:45;97037.38;;;22.98;54.52
52653;BME280;39353;42.864;12.014;2023-04-26T00:49:27;97036.31;;;22.97;54.51
52653;BME280;39353;42.864;12.014;2023-04-26T00:52:10;97035.91;;;22.95;54.56
52653;BME280;39353;42.864;12.014;2023-04-26T00:54:38;97034.48;;;22.95;54.44
52653;BME280;39353;42.864;12.014;2023-04-26T00:57:21;97036.16;;;22.93;54.55
52653;BME280;39353;42.864;12.014;2023-04-26T00:59:48;97040.41;;;22.93;54.58
52653;BME280;39353;42.864;12.014;2023-04-26T01:02:16;97043.40;;;22.91;54.52
52653;BME280;39353;42.864;12.014;2023-04-26T01:04:58;97040.65;;;22.89;54.56
52653;BME280;39353;42.864;12.014;2023-04-26T01:07:40;97042.44;;;22.88;54.41
52653;BME280;39353;42.864;12.014;2023-04-26T01:10:27;97042.31;;;22.87;54.48
52653;BME280;39353;42.864;12.014;2023-04-26T01:12:55;97040.83;;;22.86;54.51
52653;BME280;39353;42.864;12.014;2023-04-26T01:15:37;97046.98;;;22.85;54.51
52653;BME280;39353;42.864;12.014;2023-04-26T01:18:22;97048.30;;;22.85;54.32
52653;BME280;39353;42.864;12.014;2023-04-26T01:20:50;97045.83;;;22.84;54.30
52653;BME280;39353;42.864;12.014;2023-04-26T01:23:32;97045.23;;;22.84;54.42
52653;BME280;39353;42.864;12.014;2023-04-26T01:25:59;97044.30;;;22.84;54.38
52653;BME280;39353;42.864;12.014;2023-04-26T01:28:27;97042.71;;;22.84;54.16
52653;BME280;39353;42.864;12.014;2023-04-26T01:31:09;97043.20;;;22.84;54.13
52653;BME280;39353;42.864;12.014;2023-04-26T01:33:51;97040.29;;;22.83;54.12
52653;BME280;39353;42.864;12.014;2023-04-26T01:36:20;97042.98;;;22.84;54.19
52653;BME280;39353;42.864;12.014;2023-04-26T01:39:01;97044.51;;;22.83;54.25
52653;BME280;39353;42.864;12.014;2023-04-26T01:41:43;97044.48;;;22.82;54.23
52653;BME280;39353;42.864;12.014;2023-04-26T01:44:11;97044.70;;;22.82;54.14
52653;BME280;39353;42.864;12.014;2023-04-26T01:46:38;97046.17;;;22.82;54.14
52653;BME280;39353;42.864;12.014;2023-04-26T01:49:05;97052.45;;;22.82;54.18
52653;BME280;39353;42.864;12.014;2023-04-26T01:51:33;97050.02;;;22.80;54.08
52653;BME280;39353;42.864;12.014;2023-04-26T01:54:14;97053.60;;;22.78;54.12
52653;BME280;39353;42.864;12.014;2023-04-26T01:56:57;97054.74;;;22.77;54.20
52653;BME280;39353;42.864;12.014;2023-04-26T01:59:25;97052.33;;;22.76;54.18
52653;BME280;39353;42.864;12.014;2023-04-26T02:01:53;97045.70;;;22.76;54.12
52653;BME280;39353;42.864;12.014;2023-04-26T02:04:20;97048.77;;;22.76;54.26
52653;BME280;39353;42.864;12.014;2023-04-26T02:07:02;97048.73;;;22.76;54.07
52653;BME280;39353;42.864;12.014;2023-04-26T02:09:43;97050.03;;;22.76;54.04
52653;BME280;39353;42.864;12.014;2023-04-26T02:12:12;97048.65;;;22.75;54.15
52653;BME280;39353;42.864;12.014;2023-04-26T02:14:53;97048.75;;;22.75;54.13
52653;BME280;39353;42.864;12.014;2023-04-26T02:17:34;97053.70;;;22.73;54.09
52653;BME280;39353;42.864;12.014;2023-04-26T02:20:04;97053.41;;;22.72;54.11
52653;BME280;39353;42.864;12.014;2023-04-26T02:22:46;97052.77;;;22.70;54.12
52653;BME280;39353;42.864;12.014;2023-04-26T02:25:15;97053.13;;;22.69;54.22
52653;BME280;39353;42.864;12.014;2023-04-26T02:27:57;97049.97;;;22.66;54.03
52653;BME280;39353;42.864;12.014;2023-04-26T02:30:26;97049.79;;;22.65;54.22
52653;BME280;39353;42.864;12.014;2023-04-26T02:33:08;97049.84;;;22.64;54.13
52653;BME280;39353;42.864;12.014;2023-04-26T02:35:49;97055.90;;;22.62;54.14
52653;BME280;39353;42.864;12.014;2023-04-26T02:38:31;97059.30;;;22.60;54.23
52653;BME280;39353;42.864;12.014;2023-04-26T02:41:02;97060.70;;;22.60;54.22
52653;BME280;39353;42.864;12.014;2023-04-26T02:43:29;97063.15;;;22.59;54.17
52653;BME280;39353;42.864;12.014;2023-04-26T02:45:58;97058.75;;;22.57;54.21
52653;BME280;39353;42.864;12.014;2023-04-26T02:48:27;97061.41;;;22.56;54.22
52653;BME280;39353;42.864;12.014;2023-04-26T02:50:54;97064.73;;;22.55;54.21
52653;BME280;39353;42.864;12.014;2023-04-26T02:53:26;97071.12;;;22.55;54.13
52653;BME280;39353;42.864;12.014;2023-04-26T02:56:09;97072.95;;;22.54;54.23
52653;BME280;39353;42.864;12.014;2023-04-26T03:02:13;97075.05;;;22.51;54.14
52653;BME280;39353;42.864;12.014;2023-04-26T03:04:55;97072.48;;;22.50;54.07
52653;BME280;39353;42.864;12.014;2023-04-26T03:07:37;97080.83;;;22.50;54.03
52653;BME280;39353;42.864;12.014;2023-04-26T03:10:06;97079.60;;;22.51;54.04
52653;BME280;39353;42.864;12.014;2023-04-26T03:12:36;97082.25;;;22.51;53.93
52653;BME280;39353;42.864;12.014;2023-04-26T03:15:03;97085.19;;;22.49;54.14
52653;BME280;39353;42.864;12.014;2023-04-26T03:17:45;97087.19;;;22.48;54.06
52653;BME280;39353;42.864;12.014;2023-04-26T03:20:27;97085.71;;;22.48;54.14
52653;BME280;39353;42.864;12.014;2023-04-26T03:23:09;97093.35;;;22.47;54.11
52653;BME280;39353;42.864;12.014;2023-04-26T03:25:37;97093.39;;;22.46;54.03
52653;BME280;39353;42.864;12.014;2023-04-26T03:28:04;97094.97;;;22.45;54.19
52653;BME280;39353;42.864;12.014;2023-04-26T03:30:31;97098.02;;;22.45;54.13
52653;BME280;39353;42.864;12.014;2023-04-26T03:32:59;97098.45;;;22.45;54.02
52653;BME280;39353;42.864;12.014;2023-04-26T03:35:40;97103.45;;;22.43;54.00
52653;BME280;39353;42.864;12.014;2023-04-26T03:38:08;97100.20;;;22.42;54.04
52653;BME280;39353;42.864;12.014;2023-04-26T03:40:49;97103.54;;;22.41;53.88
52653;BME280;39353;42.864;12.014;2023-04-26T03:43:16;97106.83;;;22.41;54.13
52653;BME280;39353;42.864;12.014;2023-04-26T03:45:46;97104.23;;;22.40;54.06
52653;BME280;39353;42.864;12.014;2023-04-26T03:48:31;97111.39;;;22.40;54.10
52653;BME280;39353;42.864;12.014;2023-04-26T03:51:12;97115.66;;;22.40;53.93
52653;BME280;39353;42.864;12.014;2023-04-26T03:53:57;97116.85;;;22.40;53.99
52653;BME280;39353;42.864;12.014;2023-04-26T03:56:38;97116.91;;;22.40;53.92
52653;BME280;39353;42.864;12.014;2023-04-26T03:59:21;97117.77;;;22.39;53.92
52653;BME280;39353;42.864;12.014;2023-04-26T04:01:48;97128.58;;;22.38;54.00
52653;BME280;39353;42.864;12.014;2023-04-26T04:04:16;97125.58;;;22.38;54.04
52653;BME280;39353;42.864;12.014;2023-04-26T04:06:44;97129.46;;;22.37;53.98
52653;BME280;39353;42.864;12.014;2023-04-26T04:09:27;97130.70;;;22.36;53.94
52653;BME280;39353;42.864;12.014;2023-04-26T04:11:56;97129.77;;;22.37;54.00
52653;BME280;39353;42.864;12.014;2023-04-26T04:14:24;97134.13;;;22.36;53.90
52653;BME280;39353;42.864;12.014;2023-04-26T04:16:53;97138.71;;;22.35;53.96
52653;BME280;39353;42.864;12.014;2023-04-26T04:19:34;97137.10;;;22.34;54.06
52653;BME280;39353;42.864;12.014;2023-04-26T04:22:15;97140.77;;;22.34;53.89
52653;BME280;39353;42.864;12.014;2023-04-26T04:24:42;97140.58;;;22.32;54.02
52653;BME280;39353;42.864;12.014;2023-04-26T04:27:26;97142.48;;;22.32;54.01
52653;BME280;39353;42.864;12.014;2023-04-26T04:30:07;97140.64;;;22.31;54.00
52653;BME280;39353;42.864;12.014;2023-04-26T04:32:35;97143.89;;;22.31;53.84
52653;BME280;39353;42.864;12.014;2023-04-26T04:35:17;97145.36;;;22.31;53.78
52653;BME280;39353;42.864;12.014;2023-04-26T04:37:59;97149.85;;;22.32;53.85
52653;BME280;39353;42.864;12.014;2023-04-26T04:40:26;97158.03;;;22.31;53.83
52653;BME280;39353;42.864;12.014;2023-04-26T04:43:09;97159.80;;;22.29;53.72
52653;BME280;39353;42.864;12.014;2023-04-26T04:45:52;97163.03;;;22.29;53.72
52653;BME280;39353;42.864;12.014;2023-04-26T04:48:34;97170.95;;;22.28;53.68
52653;BME280;39353;42.864;12.014;2023-04-26T04:51:18;97177.73;;;22.29;53.77
52653;BME280;39353;42.864;12.014;2023-04-26T04:53:45;97179.21;;;22.29;53.60
52653;BME280;39353;42.864;12.014;2023-04-26T04:56:12;97181.92;;;22.28;53.62
52653;BME280;39353;42.864;12.014;2023-04-26T04:58:54;97182.69;;;22.26;53.57
52653;BME280;39353;42.864;12.014;2023-04-26T05:01:24;97182.73;;;22.25;53.65
52653;BME280;39353;42.864;12.014;2023-04-26T05:03:55;97181.53;;;22.25;53.53
52653;BME280;39353;42.864;12.014;2023-04-26T05:06:37;97184.03;;;22.24;53.64
52653;BME280;39353;42.864;12.014;2023-04-26T05:09:07;97185.55;;;22.24;53.60
52653;BME280;39353;42.864;12.014;2023-04-26T05:11:49;97196.01;;;22.25;53.78
52653;BME280;39353;42.864;12.014;2023-04-26T05:14:16;97193.66;;;22.24;53.81
52653;BME280;39353;42.864;12.014;2023-04-26T05:16:43;97194.20;;;22.24;53.83
52653;BME280;39353;42.864;12.014;2023-04-26T05:19:24;97190.09;;;22.24;53.74
52653;BME280;39353;42.864;12.014;2023-04-26T05:21:55;97191.55;;;22.24;53.76
52653;BME280;39353;42.864;12.014;2023-04-26T05:24:23;97192.54;;;22.23;53.89
52653;BME280;39353;42.864;12.014;2023-04-26T05:27:06;97194.66;;;22.24;53.82
52653;BME280;39353;42.864;12.014;2023-04-26T05:29:40;97190.83;;;22.23;53.91
52653;BME280;39353;42.864;12.014;2023-04-26T05:32:22;97193.69;;;22.23;53.81
52653;BME280;39353;42.864;12.014;2023-04-26T05:35:21;97198.88;;;22.20;52.65
52653;BME280;39353;42.864;12.014;2023-04-26T05:37:49;97200.39;;;22.09;49.30
52653;BME280;39353;42.864;12.014;2023-04-26T05:40:35;97203.10;;;22.05;49.99
52653;BME280;39353;42.864;12.014;2023-04-26T05:43:22;97199.22;;;22.02;49.49
52653;BME280;39353;42.864;12.014;2023-04-26T05:46:04;97201.30;;;21.87;44.74
52653;BME280;39353;42.864;12.014;2023-04-26T05:48:33;97211.98;;;21.71;44.92
52653;BME280;39353;42.864;12.014;2023-04-26T05:51:13;97215.22;;;21.60;43.03
52653;BME280;39353;42.864;12.014;2023-04-26T05:53:56;97217.14;;;21.43;43.03
52653;BME280;39353;42.864;12.014;2023-04-26T05:56:37;97218.03;;;21.22;41.24
52653;BME280;39353;42.864;12.014;2023-04-26T05:59:05;97222.54;;;21.11;44.04
52653;BME280;39353;42.864;12.014;2023-04-26T06:01:33;97221.85;;;21.20;45.41
52653;BME280;39353;42.864;12.014;2023-04-26T06:04:02;97225.11;;;21.33;46.72
52653;BME280;39353;42.864;12.014;2023-04-26T06:06:34;97226.55;;;21.45;48.14
52653;BME280;39353;42.864;12.014;2023-04-26T06:09:15;97227.39;;;21.55;48.24
52653;BME280;39353;42.864;12.014;2023-04-26T06:11:43;97226.53;;;21.61;48.10
52653;BME280;39353;42.864;12.014;2023-04-26T06:14:24;97228.96;;;21.68;48.35
52653;BME280;39353;42.864;12.014;2023-04-26T06:16:53;97232.46;;;21.74;48.31
52653;BME280;39353;42.864;12.014;2023-04-26T06:19:35;97236.48;;;21.79;48.82
52653;BME280;39353;42.864;12.014;2023-04-26T06:22:16;97242.36;;;21.84;49.30
52653;BME280;39353;42.864;12.014;2023-04-26T06:25:00;97240.55;;;21.88;49.51
52653;BME280;39353;42.864;12.014;2023-04-26T06:27:28;97240.36;;;21.92;49.53
52653;BME280;39353;42.864;12.014;2023-04-26T06:29:56;97240.23;;;21.94;49.32
52653;BME280;39353;42.864;12.014;2023-04-26T06:32:41;97248.63;;;21.88;46.22
52653;BME280;39353;42.864;12.014;2023-04-26T06:35:22;97248.33;;;21.82;47.05
52653;BME280;39353;42.864;12.014;2023-04-26T06:38:05;97244.85;;;21.82;47.99
52653;BME280;39353;42.864;12.014;2023-04-26T06:40:46;97243.48;;;21.86;48.64
52653;BME280;39353;42.864;12.014;2023-04-26T06:43:14;97246.80;;;21.89;49.15
52653;BME280;39353;42.864;12.014;2023-04-26T06:46:03;97248.31;;;21.94;49.27
52653;BME280;39353;42.864;12.014;2023-04-26T06:48:44;97248.73;;;21.97;49.28
52653;BME280;39353;42.864;12.014;2023-04-26T06:51:11;97244.86;;;22.00;49.35
52653;BME280;39353;42.864;12.014;2023-04-26T06:53:52;97253.23;;;22.04;50.01
52653;BME280;39353;42.864;12.014;2023-04-26T06:56:33;97253.79;;;22.07;50.05
52653;BME280;39353;42.864;12.014;2023-04-26T06:59:20;97254.74;;;22.10;50.26
52653;BME280;39353;42.864;12.014;2023-04-26T07:01:47;97261.52;;;22.13;50.17
52653;BME280;39353;42.864;12.014;2023-04-26T07:04:15;97260.13;;;22.17;50.34
52653;BME280;39353;42.864;12.014;2023-04-26T07:06:58;97261.74;;;22.18;50.48
52653;BME280;39353;42.864;12.014;2023-04-26T07:09:25;97261.98;;;22.20;50.27
52653;BME280;39353;42.864;12.014;2023-04-26T07:12:06;97262.92;;;22.23;50.63
52653;BME280;39353;42.864;12.014;2023-04-26T07:14:47;97265.16;;;22.27;50.77
52653;BME280;39353;42.864;12.014;2023-04-26T07:17:15;97267.17;;;22.32;50.95
52653;BME280;39353;42.864;12.014;2023-04-26T07:19:45;97269.37;;;22.35;50.94
52653;BME280;39353;42.864;12.014;2023-04-26T07:22:26;97270.98;;;22.40;51.02
52653;BME280;39353;42.864;12.014;2023-04-26T07:24:53;97272.27;;;22.42;50.94
52653;BME280;39353;42.864;12.014;2023-04-26T07:27:21;97272.91;;;22.44;50.84
52653;BME280;39353;42.864;12.014;2023-04-26T07:30:03;97274.20;;;22.44;50.79
52653;BME280;39353;42.864;12.014;2023-04-26T07:32:31;97275.21;;;22.44;50.89
52653;BME280;39353;42.864;12.014;2023-04-26T07:35:11;97277.20;;;22.43;50.90
52653;BME280;39353;42.864;12.014;2023-04-26T07:37:56;97276.71;;;22.43;50.96
52653;BME280;39353;42.864;12.014;2023-04-26T07:40:23;97279.40;;;22.42;51.27
52653;BME280;39353;42.864;12.014;2023-04-26T07:42:53;97286.05;;;22.41;51.03
52653;BME280;39353;42.864;12.014;2023-04-26T07:45:24;97290.70;;;22.42;51.09
52653;BME280;39353;42.864;12.014;2023-04-26T07:48:05;97293.85;;;22.41;51.17
52653;BME280;39353;42.864;12.014;2023-04-26T07:50:33;97297.08;;;22.41;51.13
52653;BME280;39353;42.864;12.014;2023-04-26T07:53:00;97299.39;;;22.41;50.93
52653;BME280;39353;42.864;12.014;2023-04-26T07:55:41;97298.34;;;22.41;50.55
52653;BME280;39353;42.864;12.014;2023-04-26T07:58:23;97297.80;;;22.42;50.72
52653;BME280;39353;42.864;12.014;2023-04-26T08:01:04;97299.08;;;22.43;50.83
52653;BME280;39353;42.864;12.014;2023-04-26T08:03:46;97296.16;;;22.45;50.73
52653;BME280;39353;42.864;12.014;2023-04-26T08:06:28;97296.26;;;22.46;50.85
52653;BME280;39353;42.864;12.014;2023-04-26T08:09:10;97300.83;;;22.49;50.76
52653;BME280;39353;42.864;12.014;2023-04-26T08:11:51;97302.63;;;22.51;50.97
52653;BME280;39353;42.864;12.014;2023-04-26T08:14:18;97301.63;;;22.53;51.10
52653;BME280;39353;42.864;12.014;2023-04-26T08:16:45;97302.64;;;22.55;51.08
52653;BME280;39353;42.864;12.014;2023-04-26T08:19:12;97303.43;;;22.55;50.96
52653;BME280;39353;42.864;12.014;2023-04-26T08:21:40;97306.11;;;22.56;51.08
52653;BME280;39353;42.864;12.014;2023-04-26T08:24:07;97308.02;;;22.55;51.02
52653;BME280;39353;42.864;12.014;2023-04-26T08:26:35;97308.52;;;22.53;50.71
52653;BME280;39353;42.864;12.014;2023-04-26T08:29:02;97309.67;;;22.51;49.70
52653;BME280;39353;42.864;12.014;2023-04-26T08:31:30;97311.75;;;22.48;49.60
52653;BME280;39353;42.864;12.014;2023-04-26T08:33:57;97310.46;;;22.46;49.97
52653;BME280;39353;42.864;12.014;2023-04-26T08:36:39;97311.73;;;22.46;50.25
52653;BME280;39353;42.864;12.014;2023-04-26T08:39:08;97312.45;;;22.45;50.31
52653;BME280;39353;42.864;12.014;2023-04-26T08:41:53;97317.27;;;22.45;50.17
52653;BME280;39353;42.864;12.014;2023-04-26T08:44:35;97314.83;;;22.42;48.22
52653;BME280;39353;42.864;12.014;2023-04-26T08:47:21;97314.50;;;22.37;48.22
52653;BME280;39353;42.864;12.014;2023-04-26T08:49:57;97317.85;;;22.35;49.07
52653;BME280;39353;42.864;12.014;2023-04-26T08:52:31;97318.38;;;22.34;49.36
52653;BME280;39353;42.864;12.014;2023-04-26T08:54:59;97322.90;;;22.33;49.52
52653;BME280;39353;42.864;12.014;2023-04-26T08:57:42;97326.20;;;22.32;49.63
52653;BME280;39353;42.864;12.014;2023-04-26T09:00:12;97327.92;;;22.30;49.83
52653;BME280;39353;42.864;12.014;2023-04-26T09:02:46;97326.91;;;22.29;50.02
52653;BME280;39353;42.864;12.014;2023-04-26T09:05:13;97322.38;;;22.27;50.03
52653;BME280;39353;42.864;12.014;2023-04-26T09:08:00;97327.27;;;22.26;50.06
52653;BME280;39353;42.864;12.014;2023-04-26T09:10:29;97324.33;;;22.26;50.21
52653;BME280;39353;42.864;12.014;2023-04-26T09:12:58;97331.80;;;22.26;50.35
52653;BME280;39353;42.864;12.014;2023-04-26T09:15:39;97329.66;;;22.25;50.35
52653;BME280;39353;42.864;12.014;2023-04-26T09:18:21;97329.05;;;22.25;50.36
52653;BME280;39353;42.864;12.014;2023-04-26T09:21:06;97332.41;;;22.24;50.39
52653;BME280;39353;42.864;12.014;2023-04-26T09:23:58;97334.01;;;22.24;50.46
52653;BME280;39353;42.864;12.014;2023-04-26T09:26:41;97333.39;;;22.23;50.49
52653;BME280;39353;42.864;12.014;2023-04-26T09:29:11;97333.93;;;22.23;50.44
52653;BME280;39353;42.864;12.014;2023-04-26T09:31:53;97334.05;;;22.24;50.50
52653;BME280;39353;42.864;12.014;2023-04-26T09:34:21;97333.08;;;22.24;50.48
52653;BME280;39353;42.864;12.014;2023-04-26T09:36:53;97328.64;;;22.23;50.47
52653;BME280;39353;42.864;12.014;2023-04-26T09:39:37;97331.14;;;22.22;50.49
52653;BME280;39353;42.864;12.014;2023-04-26T09:42:07;97324.67;;;22.22;50.45
52653;BME280;39353;42.864;12.014;2023-04-26T09:44:36;97323.83;;;22.21;50.58
52653;BME280;39353;42.864;12.014;2023-04-26T09:47:20;97326.45;;;22.21;50.49
52653;BME280;39353;42.864;12.014;2023-04-26T09:49:49;97324.30;;;22.21;50.27
52653;BME280;39353;42.864;12.014;2023-04-26T09:52:41;97322.44;;;22.20;48.64
52653;BME280;39353;42.864;12.014;2023-04-26T09:55:09;97320.46;;;22.14;45.34
52653;BME280;39353;42.864;12.014;2023-04-26T09:57:51;97315.73;;;22.13;46.03
52653;BME280;39353;42.864;12.014;2023-04-26T10:00:19;97316.56;;;22.14;47.17
52653;BME280;39353;42.864;12.014;2023-04-26T10:02:48;97319.72;;;22.13;47.63
52653;BME280;39353;42.864;12.014;2023-04-26T10:05:16;97320.60;;;22.14;48.00
52653;BME280;39353;42.864;12.014;2023-04-26T10:07:44;97314.83;;;22.14;48.39
52653;BME280;39353;42.864;12.014;2023-04-26T10:10:11;97315.56;;;22.15;48.65
52653;BME280;39353;42.864;12.014;2023-04-26T10:12:54;97317.05;;;22.16;48.67
52653;BME280;39353;42.864;12.014;2023-04-26T10:15:21;97312.67;;;22.18;49.14
52653;BME280;39353;42.864;12.014;2023-04-26T10:18:02;97310.55;;;22.19;47.06
52653;BME280;39353;42.864;12.014;2023-04-26T10:20:30;97313.17;;;22.20;46.38
52653;BME280;39353;42.864;12.014;2023-04-26T10:23:19;97315.52;;;22.21;47.82
52653;BME280;39353;42.864;12.014;2023-04-26T10:25:48;97308.25;;;22.23;47.98
52653;BME280;39353;42.864;12.014;2023-04-26T10:28:17;97307.78;;;22.27;48.02
52653;BME280;39353;42.864;12.014;2023-04-26T10:30:58;97309.98;;;22.30;48.31
52653;BME280;39353;42.864;12.014;2023-04-26T10:33:40;97310.02;;;22.34;48.60
52653;BME280;39353;42.864;12.014;2023-04-26T10:36:22;97311.41;;;22.38;48.79
52653;BME280;39353;42.864;12.014;2023-04-26T10:39:17;97310.96;;;22.41;48.73
52653;BME280;39353;42.864;12.014;2023-04-26T10:41:47;97315.30;;;22.47;48.78
52653;BME280;39353;42.864;12.014;2023-04-26T10:44:37;97312.38;;;22.52;48.83
52653;BME280;39353;42.864;12.014;2023-04-26T10:47:31;97308.42;;;22.59;48.99
52653;BME280;39353;42.864;12.014;2023-04-26T10:50:09;97305.11;;;22.62;49.34
52653;BME280;39353;42.864;12.014;2023-04-26T10:55:43;97302.70;;;22.66;49.16
52653;BME280;39353;42.864;12.014;2023-04-26T10:58:32;97300.16;;;22.67;48.71
52653;BME280;39353;42.864;12.014;2023-04-26T11:01:08;97298.04;;;22.68;48.76
52653;BME280;39353;42.864;12.014;2023-04-26T11:06:54;97293.60;;;22.67;48.07
52653;BME280;39353;42.864;12.014;2023-04-26T11:09:40;97292.77;;;22.67;48.15
52653;BME280;39353;42.864;12.014;2023-04-26T11:12:15;97294.19;;;22.69;47.91
52653;BME280;39353;42.864;12.014;2023-04-26T11:14:58;97295.67;;;22.72;47.83
52653;BME280;39353;42.864;12.014;2023-04-26T11:17:27;97291.14;;;22.75;47.79
52653;BME280;39353;42.864;12.014;2023-04-26T11:20:07;97290.12;;;22.80;47.60
52653;BME280;39353;42.864;12.014;2023-04-26T11:22:39;97289.23;;;22.82;47.66
52653;BME280;39353;42.864;12.014;2023-04-26T11:25:25;97284.50;;;22.86;47.47
52653;BME280;39353;42.864;12.014;2023-04-26T11:28:08;97281.87;;;22.86;46.60
52653;BME280;39353;42.864;12.014;2023-04-26T11:30:35;97279.20;;;22.89;45.55
52653;BME280;39353;42.864;12.014;2023-04-26T11:33:18;97285.30;;;22.90;45.11
52653;BME280;39353;42.864;12.014;2023-04-26T11:35:46;97276.87;;;22.90;45.16
52653;BME280;39353;42.864;12.014;2023-04-26T11:38:28;97278.56;;;22.91;45.26
52653;BME280;39353;42.864;12.014;2023-04-26T11:41:10;97273.15;;;22.90;45.64
52653;BME280;39353;42.864;12.014;2023-04-26T11:43:51;97271.34;;;22.91;45.92
52653;BME280;39353;42.864;12.014;2023-04-26T11:46:19;97267.26;;;22.92;46.26
52653;BME280;39353;42.864;12.014;2023-04-26T11:49:01;97266.06;;;22.92;46.47
52653;BME280;39353;42.864;12.014;2023-04-26T11:51:45;97272.80;;;22.92;46.69
52653;BME280;39353;42.864;12.014;2023-04-26T11:54:34;97271.22;;;22.94;46.94
52653;BME280;39353;42.864;12.014;2023-04-26T11:57:16;97271.37;;;22.92;47.18
52653;BME280;39353;42.864;12.014;2023-04-26T12:00:11;97274.48;;;22.92;47.38
52653;BME280;39353;42.864;12.014;2023-04-26T12:02:54;97273.55;;;22.95;47.57
52653;BME280;39353;42.864;12.014;2023-04-26T12:05:36;97274.31;;;22.95;47.73
52653;BME280;39353;42.864;12.014;2023-04-26T12:08:04;97274.80;;;22.95;47.27
52653;BME280;39353;42.864;12.014;2023-04-26T12:10:35;97271.62;;;22.97;46.53
52653;BME280;39353;42.864;12.014;2023-04-26T12:13:18;97267.84;;;23.05;45.98
52653;BME280;39353;42.864;12.014;2023-04-26T12:15:45;97272.70;;;23.08;44.07
52653;BME280;39353;42.864;12.014;2023-04-26T12:18:31;97270.81;;;23.00;38.06
52653;BME280;39353;42.864;12.014;2023-04-26T12:21:00;97268.86;;;22.93;38.18
52653;BME280;39353;42.864;12.014;2023-04-26T12:23:36;97272.72;;;22.92;41.74
52653;BME280;39353;42.864;12.014;2023-04-26T12:26:06;97269.50;;;22.88;42.88
52653;BME280;39353;42.864;12.014;2023-04-26T12:28:37;97269.84;;;22.86;43.44
52653;BME280;39353;42.864;12.014;2023-04-26T12:31:18;97270.96;;;22.85;43.73
52653;BME280;39353;42.864;12.014;2023-04-26T12:33:59;97271.92;;;22.83;44.11
52653;BME280;39353;42.864;12.014;2023-04-26T12:36:41;97278.08;;;22.82;44.66
52653;BME280;39353;42.864;12.014;2023-04-26T12:39:11;97275.23;;;22.82;44.94
52653;BME280;39353;42.864;12.014;2023-04-26T12:41:40;97272.38;;;22.82;45.31
52653;BME280;39353;42.864;12.014;2023-04-26T12:44:23;97273.90;;;22.81;45.55
52653;BME280;39353;42.864;12.014;2023-04-26T12:47:05;97275.88;;;22.81;46.11
52653;BME280;39353;42.864;12.014;2023-04-26T12:49:33;97273.19;;;22.81;46.23
52653;BME280;39353;42.864;12.014;2023-04-26T12:52:00;97272.63;;;22.81;46.45
52653;BME280;39353;42.864;12.014;2023-04-26T12:54:43;97275.02;;;22.80;46.90
52653;BME280;39353;42.864;12.014;2023-04-26T12:57:13;97270.62;;;22.79;46.94
52653;BME280;39353;42.864;12.014;2023-04-26T12:59:41;97267.84;;;22.79;46.96
52653;BME280;39353;42.864;12.014;2023-04-26T13:02:09;97265.50;;;22.80;46.72
52653;BME280;39353;42.864;12.014;2023-04-26T13:04:39;97266.31;;;22.80;46.86
52653;BME280;39353;42.864;12.014;2023-04-26T13:07:07;97264.73;;;22.79;46.37
52653;BME280;39353;42.864;12.014;2023-04-26T13:09:48;97257.41;;;22.80;45.57
52653;BME280;39353;42.864;12.014;2023-04-26T13:12:15;97256.36;;;22.79;38.37
52653;BME280;39353;42.864;12.014;2023-04-26T13:14:56;97259.15;;;22.82;38.85
52653;BME280;39353;42.864;12.014;2023-04-26T13:17:38;97258.88;;;22.85;37.75
52653;BME280;39353;42.864;12.014;2023-04-26T13:20:06;97257.90;;;22.89;39.77
52653;BME280;39353;42.864;12.014;2023-04-26T13:22:48;97253.61;;;22.94;41.15
52653;BME280;39353;42.864;12.014;2023-04-26T13:25:16;97255.14;;;22.97;42.12
52653;BME280;39353;42.864;12.014;2023-04-26T13:27:58;97253.45;;;22.94;42.26
52653;BME280;39353;42.864;12.014;2023-04-26T13:30:26;97249.56;;;22.94;42.80
52653;BME280;39353;42.864;12.014;2023-04-26T13:32:54;97246.21;;;22.94;40.39
52653;BME280;39353;42.864;12.014;2023-04-26T13:35:35;97249.56;;;22.94;42.92
52653;BME280;39353;42.864;12.014;2023-04-26T13:38:04;97248.19;;;22.94;43.44
52653;BME280;39353;42.864;12.014;2023-04-26T13:40:45;97244.73;;;22.94;43.56
52653;BME280;39353;42.864;12.014;2023-04-26T13:43:26;97240.77;;;22.92;43.93
52653;BME280;39353;42.864;12.014;2023-04-26T13:46:07;97244.10;;;22.92;44.24